Terminal Aerodrome Forecast
Issued by NWS

Home | Current Version | Previous Version | Graphics & Text | Print | Product List | Glossary On
Versions: 1 2 3 4 5 6 7 8 9 10 11 12 13
000
FTUS45 KGGW 271120
TAFGDV
TAF
KGDV 271120Z 2712/2812 02005KT P6SM VCSH OVC004
     FM271400 03006KT P6SM -RA OVC008
     FM272000 05011KT P6SM -RA OVC015
     FM280500 01013KT P6SM -RASN OVC035
      AMD LTD TO CLD VIS AND WIND=

USA.gov is the U.S. government's official web portal to all federal, state and local government web resources and services.